Terminal Aerodrome Forecast
Issued by NWS Charleston, WV

Current Version | Previous Version | Text Only | Print | Product List | Glossary Off
Versions: 1 2 3 4 5 6 7 8 9 10 11 12 13 14 15 16 17 18 19 20 21 22 23 24 25 26 27 28 29 30 31 32

000
FTUS41 KRLX 141457 AAA
TAFEKN
TAF AMD
KEKN 141457Z 1415/1512 18004KT 5SM SHRA OVC035
     FM142000 18004KT P6SM SHRA OVC050
     FM142300 VRB03KT P6SM OVC050
     FM150700 00000KT 1/2SM FG BKN001=

USA.gov is the U.S. government's official web portal to all federal, state and local government web resources and services.